Other Surface Observations
Issued by NWS Great Falls, MT

Home | Current Version | Previous Version | Text Only | Print | Product List | Glossary On
Versions: 1 2 3 4 5 6 7 8 9 10 11 12 13 14 15 16 17 18 19 20 21 22 23 24 25 26 27 28 29 30 31 32 33 34 35 36 37 38 39 40 41 42 43 44 45 46 47 48 49 50
000
SXUS55 KTFX 011906
OSOTFX

AREA AWOS OBSERVATIONS
NATIONAL WEATHER SERVICE GREAT FALLS MT
1208 PM MDT Tue Sep 01 2015

METAR K6S8 011755Z AUTO 20001KT 40SM 28/01 A2988 RMK A01 T02830005
METAR K7S0 011755Z AUTO 22004KT 25SM 22/05 A2997 RMK A01 T02220050
METAR K7S1 011755Z AUTO 18007KT 40SM 23/02 A2998 RMK A01 T02330022
METAR K97M 011755Z AUTO 26000KT 40SM 27/11 A2987 RMK A01 T02720105
METAR K9S2 011755Z AUTO 22004KT 25SM 26/08 A2979 RMK A01 T02550083
METAR K9S5 011755Z AUTO 09000KT 25SM 23/M03 A2995 RMK A01 T02331033
METAR KM75 011755Z AUTO 27003KT 40SM 27/07 A2976 RMK A01 T02660072
METAR KRPX 011755Z AUTO 22005KT 40SM 28/02 A2980 RMK A01 T02830022
METAR KS01 011755Z AUTO 16006KT 25SM 23/M03 A2987 RMK A01 T02331033
METAR KS34 011755Z AUTO 01001KT 25SM 22/06 A2992 RMK A01 T02160061
METAR KTHM 011755Z AUTO 30002KT 40SM 22/05 A2995 RMK A01 T02220050
METAR KTHM 011655Z AUTO 33005KT 40SM 20/08 A2996 RMK A01 T02000077



USA.gov is the U.S. government's official web portal to all federal, state and local government web resources and services.